Time;durP1;ratioP1;P1;durP2;ratioP2;P2;SDS_P1;SDS_P2;PMS_P1;PMS_P2;Temp;Humidity;BMP_temperature;BMP_pressure;BME280_temperature;BME280_humidity;BME280_pressure;Samples;Min_cycle;Max_cycle;Signal;HPM_P1;HPM_P2
2022/09/13 00:00:45;;;;;;;5.10;4.60;;;17.70;99.90;;;;;;6309964;22;20422;-61
2022/09/13 00:03:17;;;;;;;4.87;4.37;;;17.60;99.90;;;;;;6310354;22;20397;-60
2022/09/13 00:05:48;;;;;;;5.13;4.30;;;17.70;99.90;;;;;;6310400;22;20391;-60
2022/09/13 00:08:22;;;;;;;5.50;5.07;;;17.60;99.90;;;;;;6310275;22;20392;-60
2022/09/13 00:10:49;;;;;;;6.60;5.00;;;17.60;99.90;;;;;;6309635;22;20429;-60
2022/09/13 00:13:27;;;;;;;5.50;4.60;;;17.50;99.90;;;;;;6310303;22;20533;-60
2022/09/13 00:15:54;;;;;;;5.20;4.70;;;17.50;99.90;;;;;;6309630;22;20416;-60
2022/09/13 00:18:26;;;;;;;7.33;4.67;;;17.50;99.90;;;;;;6310131;22;20522;-60
2022/09/13 00:21:03;;;;;;;5.00;4.60;;;17.30;99.90;;;;;;6309598;22;20452;-60
2022/09/13 00:23:32;;;;;;;6.07;5.53;;;17.20;99.90;;;;;;6310351;22;20805;-60
2022/09/13 00:26:07;;;;;;;5.80;4.83;;;17.20;99.90;;;;;;6309422;22;20423;-60
2022/09/13 00:28:37;;;;;;;6.27;5.70;;;17.10;99.90;;;;;;6309795;22;20416;-60
2022/09/13 00:31:07;;;;;;;6.20;5.57;;;17.00;99.90;;;;;;6310047;22;20455;-60
2022/09/13 00:33:36;;;;;;;5.60;5.10;;;17.00;99.90;;;;;;6309565;22;20915;-60
2022/09/13 00:36:18;;;;;;;6.83;6.10;;;17.00;99.90;;;;;;6309700;22;20517;-60
2022/09/13 00:38:55;;;;;;;5.90;5.20;;;17.10;99.90;;;;;;6310439;22;20420;-60
2022/09/13 00:41:24;;;;;;;5.90;5.40;;;17.20;99.90;;;;;;6310195;22;20799;-60
2022/09/13 00:43:53;;;;;;;5.60;5.10;;;17.00;99.90;;;;;;6308338;22;20880;-60
2022/09/13 00:46:27;;;;;;;4.87;4.40;;;17.00;99.90;;;;;;6309387;22;20452;-60
2022/09/13 00:49:03;;;;;;;4.90;4.50;;;17.10;99.90;;;;;;6309783;22;20511;-60
2022/09/13 00:51:42;;;;;;;5.67;5.20;;;17.10;99.90;;;;;;6310363;22;20419;-60
2022/09/13 00:54:13;;;;;;;5.17;4.67;;;17.20;99.90;;;;;;6309996;22;20479;-60
2022/09/13 00:56:46;;;;;;;5.60;5.10;;;17.20;99.90;;;;;;6309511;22;20519;-60
2022/09/13 00:59:27;;;;;;;5.67;5.17;;;17.30;99.90;;;;;;6309692;22;20416;-60
2022/09/13 01:01:58;;;;;;;5.53;4.63;;;17.40;99.90;;;;;;6309830;22;20796;-59
2022/09/13 01:04:30;;;;;;;5.73;5.20;;;17.40;99.90;;;;;;6308780;22;20522;-60
2022/09/13 01:07:02;;;;;;;5.57;5.07;;;17.40;99.90;;;;;;6309102;22;20707;-60
2022/09/13 01:09:37;;;;;;;6.30;5.70;;;17.40;99.90;;;;;;6309733;22;20379;-60
2022/09/13 01:12:09;;;;;;;6.17;5.67;;;17.40;99.90;;;;;;6309018;22;20497;-60
2022/09/13 01:14:37;;;;;;;5.40;4.90;;;17.30;99.90;;;;;;6309411;22;20562;-60
2022/09/13 01:17:09;;;;;;;6.50;5.80;;;17.30;99.90;;;;;;6309719;22;20451;-60
2022/09/13 01:19:38;;;;;;;5.33;4.93;;;17.30;99.90;;;;;;6309936;22;20419;-60
2022/09/13 01:22:35;;;;;;;6.27;5.67;;;17.20;99.90;;;;;;6309629;22;20454;-60
2022/09/13 01:25:38;;;;;;;6.73;5.90;;;17.10;99.90;;;;;;6309376;22;20858;-60
2022/09/13 01:28:23;;;;;;;5.73;5.17;;;17.00;99.90;;;;;;6308284;22;20512;-60
2022/09/13 01:31:02;;;;;;;5.50;5.10;;;17.00;99.90;;;;;;6309449;22;20924;-60
2022/09/13 01:33:53;;;;;;;6.17;5.13;;;17.00;99.90;;;;;;6309878;22;20483;-60
2022/09/13 01:36:56;;;;;;;5.60;5.10;;;16.90;99.90;;;;;;6308720;22;20527;-60
2022/09/13 01:39:34;;;;;;;6.03;5.53;;;16.90;99.90;;;;;;6280178;22;20411;-60
2022/09/13 01:42:16;;;;;;;6.33;5.17;;;16.90;99.90;;;;;;6309285;22;20461;-60
2022/09/13 01:44:58;;;;;;;5.80;5.30;;;16.90;99.90;;;;;;6309237;22;20518;-60
2022/09/13 01:47:34;;;;;;;5.93;5.43;;;16.90;99.90;;;;;;6309622;22;20481;-58
2022/09/13 01:50:23;;;;;;;5.87;5.27;;;17.00;99.90;;;;;;6309228;22;20752;-60
2022/09/13 01:53:02;;;;;;;4.77;4.37;;;17.00;99.90;;;;;;6310088;22;20762;-60
2022/09/13 01:55:35;;;;;;;5.20;4.80;;;17.00;99.90;;;;;;6309454;22;20400;-60
2022/09/13 01:58:22;;;;;;;5.10;4.70;;;17.10;99.90;;;;;;6309297;22;20462;-60
2022/09/13 02:01:04;;;;;;;5.90;5.40;;;17.10;99.90;;;;;;6309306;22;20778;-60
2022/09/13 02:03:39;;;;;;;5.47;4.90;;;17.00;99.90;;;;;;6309906;22;20475;-60
2022/09/13 02:06:11;;;;;;;5.73;5.23;;;17.00;99.90;;;;;;6308229;22;20511;-59
2022/09/13 02:08:46;;;;;;;5.17;4.77;;;16.90;99.90;;;;;;6309822;22;20416;-60
2022/09/13 02:11:16;;;;;;;5.30;4.90;;;16.90;99.90;;;;;;6311874;22;20415;-60
2022/09/13 02:13:49;;;;;;;5.30;4.80;;;17.00;99.90;;;;;;6311493;22;20448;-60
2022/09/13 02:16:20;;;;;;;4.80;4.40;;;17.00;99.90;;;;;;6310180;22;20514;-60
2022/09/13 02:18:58;;;;;;;4.87;4.37;;;17.00;99.90;;;;;;6310695;22;20518;-60
2022/09/13 02:21:29;;;;;;;5.53;5.03;;;17.00;99.90;;;;;;6310264;22;20416;-60
2022/09/13 02:24:03;;;;;;;5.40;4.87;;;17.00;99.90;;;;;;6311097;22;20477;-60
2022/09/13 02:26:35;;;;;;;5.20;4.50;;;17.00;99.90;;;;;;6310937;22;20459;-60
2022/09/13 02:29:11;;;;;;;5.30;4.80;;;16.90;99.90;;;;;;6311474;22;20416;-60
2022/09/13 02:31:46;;;;;;;4.83;4.37;;;16.90;99.90;;;;;;6311347;22;20503;-60
2022/09/13 02:34:23;;;;;;;4.77;4.37;;;16.90;99.90;;;;;;6311500;22;20978;-60
2022/09/13 02:36:55;;;;;;;5.63;5.13;;;16.90;99.90;;;;;;6311432;22;20553;-60
2022/09/13 02:39:27;;;;;;;6.20;5.50;;;16.90;99.90;;;;;;6311305;22;20416;-60
2022/09/13 02:41:59;;;;;;;5.23;4.73;;;16.90;99.90;;;;;;6310635;22;20518;-60
2022/09/13 02:44:33;;;;;;;5.30;4.80;;;16.90;99.90;;;;;;6310733;22;20412;-60
2022/09/13 02:47:11;;;;;;;5.60;4.80;;;16.90;99.90;;;;;;6311325;22;20419;-60
2022/09/13 02:49:50;;;;;;;5.90;5.40;;;16.90;99.90;;;;;;6311497;22;20416;-60
2022/09/13 02:52:28;;;;;;;5.37;4.97;;;16.90;99.90;;;;;;6303471;22;20420;-60
2022/09/13 02:55:01;;;;;;;5.13;4.63;;;16.90;99.90;;;;;;6310222;22;20447;-60
2022/09/13 02:57:35;;;;;;;5.50;5.10;;;16.90;99.90;;;;;;6311123;22;20527;-60
2022/09/13 03:00:02;;;;;;;6.10;5.20;;;16.90;99.90;;;;;;6310698;22;20540;-58
2022/09/13 03:02:33;;;;;;;5.60;5.10;;;16.90;99.90;;;;;;6310176;22;20523;-60
2022/09/13 03:05:07;;;;;;;5.63;5.13;;;16.90;99.90;;;;;;6311121;22;20471;-60
2022/09/13 03:07:36;;;;;;;5.57;5.17;;;16.80;1.00;;;;;;6311227;22;20451;-60
2022/09/13 03:10:07;;;;;;;6.37;5.77;;;16.90;1.00;;;;;;6310775;22;20469;-60
2022/09/13 03:13:11;;;;;;;5.40;4.97;;;16.90;99.90;;;;;;6310685;22;20460;-60
2022/09/13 03:15:53;;;;;;;8.60;5.37;;;16.90;99.90;;;;;;6309630;22;20426;-60
2022/09/13 03:18:42;;;;;;;6.80;4.93;;;16.80;99.90;;;;;;6310839;22;20728;-59
2022/09/13 03:21:22;;;;;;;6.27;5.67;;;16.80;99.90;;;;;;6310435;22;20421;-59
2022/09/13 03:24:00;;;;;;;5.60;5.10;;;16.80;99.90;;;;;;6309773;22;20511;-60
2022/09/13 03:26:36;;;;;;;4.83;4.33;;;16.90;99.90;;;;;;6310917;22;20462;-60
2022/09/13 03:29:20;;;;;;;5.10;4.70;;;16.90;99.90;;;;;;6311109;22;20420;-60
2022/09/13 03:31:53;;;;;;;5.83;5.10;;;16.90;99.90;;;;;;6310279;22;20391;-60
2022/09/13 03:34:30;;;;;;;5.00;4.60;;;16.90;99.90;;;;;;6310017;22;20733;-57
2022/09/13 03:37:09;;;;;;;5.73;5.23;;;17.00;99.90;;;;;;6310053;22;20952;-57
2022/09/13 03:39:42;;;;;;;5.93;5.43;;;17.10;99.90;;;;;;6310955;22;20456;-60
2022/09/13 03:42:16;;;;;;;4.90;4.50;;;17.10;99.90;;;;;;6310083;22;20777;-60
2022/09/13 03:44:51;;;;;;;5.53;5.03;;;17.10;99.90;;;;;;6308668;22;20498;-60
2022/09/13 03:47:20;;;;;;;6.47;5.87;;;17.00;99.90;;;;;;6308603;22;20452;-60
2022/09/13 03:49:51;;;;;;;6.27;5.13;;;17.00;99.90;;;;;;6308274;22;20416;-60
2022/09/13 03:52:23;;;;;;;5.53;5.13;;;16.90;1.00;;;;;;6309823;22;20827;-60
2022/09/13 03:54:57;;;;;;;7.57;6.50;;;16.80;1.00;;;;;;6308804;22;20444;-61
2022/09/13 03:57:25;;;;;;;6.00;5.40;;;16.80;1.00;;;;;;6310414;22;20900;-61
2022/09/13 03:59:54;;;;;;;6.03;5.43;;;16.70;1.00;;;;;;6310067;22;20420;-61
2022/09/13 04:02:27;;;;;;;6.10;5.50;;;16.60;1.00;;;;;;6309928;22;20474;-62
2022/09/13 04:04:55;;;;;;;6.60;6.00;;;16.70;1.00;;;;;;6310188;22;20477;-62
2022/09/13 04:07:30;;;;;;;6.33;5.77;;;16.70;1.00;;;;;;6310202;22;20456;-63
2022/09/13 04:09:59;;;;;;;7.10;6.50;;;16.60;1.00;;;;;;6308974;22;20397;-64
2022/09/13 04:12:30;;;;;;;8.00;6.33;;;16.60;1.00;;;;;;6309159;22;20470;-64
2022/09/13 04:14:57;;;;;;;6.47;5.90;;;16.60;1.00;;;;;;6310652;22;20440;-64
2022/09/13 04:17:27;;;;;;;5.83;5.33;;;16.50;20.30;;;;;;6310654;22;20387;-63
2022/09/13 04:19:54;;;;;;;7.90;6.23;;;16.50;1.00;;;;;;6309627;22;20422;-63
2022/09/13 04:22:26;;;;;;;6.37;5.77;;;16.50;1.00;;;;;;6308844;22;20824;-62
2022/09/13 04:24:59;;;;;;;6.77;5.83;;;16.50;25.70;;;;;;6310082;22;20507;-62
2022/09/13 04:27:29;;;;;;;6.20;5.60;;;16.40;43.30;;;;;;6310114;22;20412;-62
2022/09/13 04:29:56;;;;;;;5.90;5.30;;;16.40;99.90;;;;;;6310229;22;20862;-62
2022/09/13 04:32:26;;;;;;;6.57;6.07;;;16.40;99.90;;;;;;6309655;22;20493;-63
2022/09/13 04:34:55;;;;;;;7.17;6.57;;;16.40;1.00;;;;;;6310370;22;20517;-62
2022/09/13 04:37:22;;;;;;;9.40;6.80;;;16.40;17.60;;;;;;6310389;22;20432;-62
2022/09/13 04:39:51;;;;;;;7.33;6.70;;;16.30;99.90;;;;;;6309014;22;20478;-62
2022/09/13 04:42:18;;;;;;;10.43;6.30;;;16.30;99.90;;;;;;6310095;22;20905;-62
2022/09/13 04:44:48;;;;;;;8.00;6.13;;;16.20;1.00;;;;;;6309417;22;20417;-62
2022/09/13 04:47:18;;;;;;;7.13;6.53;;;16.20;1.00;;;;;;6310262;22;20421;-62
2022/09/13 04:49:47;;;;;;;6.40;5.83;;;16.30;1.00;;;;;;6310280;22;20416;-62
2022/09/13 04:52:16;;;;;;;6.73;6.13;;;16.30;1.00;;;;;;6309561;22;20784;-62
2022/09/13 04:54:46;;;;;;;7.27;6.23;;;16.30;1.00;;;;;;6309198;22;20456;-63
2022/09/13 04:57:19;;;;;;;7.30;6.60;;;16.30;1.00;;;;;;6310997;22;20417;-63
2022/09/13 04:59:50;;;;;;;8.10;5.67;;;16.30;99.90;;;;;;6310319;22;20448;-63
2022/09/13 05:02:22;;;;;;;7.30;6.67;;;16.30;99.90;;;;;;6310209;22;20427;-63
2022/09/13 05:04:54;;;;;;;7.33;6.60;;;16.30;1.00;;;;;;6309794;22;20416;-63
2022/09/13 05:07:22;;;;;;;7.13;5.93;;;16.40;1.00;;;;;;6309996;22;20416;-63
2022/09/13 05:09:52;;;;;;;7.50;6.20;;;16.40;99.90;;;;;;6308619;22;20429;-63
2022/09/13 05:12:20;;;;;;;6.47;5.87;;;16.30;1.00;;;;;;6309790;22;20416;-63
2022/09/13 05:14:47;;;;;;;6.23;5.67;;;16.30;1.00;;;;;;6307918;22;20932;-63
2022/09/13 05:17:15;;;;;;;6.67;6.10;;;16.30;1.00;;;;;;6307272;22;20416;-63
2022/09/13 05:19:42;;;;;;;6.60;6.00;;;16.30;99.90;;;;;;6308826;22;20515;-63
2022/09/13 05:22:20;;;;;;;7.17;6.53;;;16.20;1.00;;;;;;6308947;22;20940;-63
2022/09/13 05:24:51;;;;;;;7.07;6.40;;;16.20;1.00;;;;;;6309016;22;20744;-63
2022/09/13 05:27:22;;;;;;;6.63;6.00;;;16.30;22.10;;;;;;6310661;22;20424;-63
2022/09/13 05:29:51;;;;;;;6.50;5.90;;;16.30;15.90;;;;;;6309596;22;20416;-63
2022/09/13 05:32:19;;;;;;;14.93;6.10;;;16.20;1.00;;;;;;6308939;22;20522;-63
2022/09/13 05:34:49;;;;;;;9.10;5.97;;;16.20;1.00;;;;;;6307165;22;20444;-63
2022/09/13 05:37:19;;;;;;;9.03;6.23;;;16.20;30.60;;;;;;6307856;22;20535;-63
2022/09/13 05:39:49;;;;;;;6.93;5.77;;;16.20;1.00;;;;;;6308614;22;20434;-62
2022/09/13 05:42:24;;;;;;;9.23;6.33;;;16.20;17.60;;;;;;6308065;22;20524;-62
2022/09/13 05:44:51;;;;;;;7.00;6.30;;;16.20;99.90;;;;;;6309798;22;20507;-62
2022/09/13 05:47:21;;;;;;;8.17;6.77;;;16.30;99.90;;;;;;6310001;22;20418;-62
2022/09/13 05:49:48;;;;;;;7.03;6.33;;;16.30;99.90;;;;;;6310529;22;20423;-62
2022/09/13 05:52:17;;;;;;;10.63;6.67;;;16.30;99.90;;;;;;6310676;22;20477;-62
2022/09/13 05:54:48;;;;;;;7.60;6.90;;;16.40;99.90;;;;;;6310578;22;20447;-62
2022/09/13 05:57:15;;;;;;;9.10;6.97;;;16.40;99.90;;;;;;6309645;22;20390;-62
2022/09/13 05:59:48;;;;;;;12.23;7.30;;;16.50;99.90;;;;;;6310285;22;20511;-62
2022/09/13 06:02:17;;;;;;;14.10;6.73;;;16.50;99.90;;;;;;6309091;22;20857;-62
2022/09/13 06:04:49;;;;;;;7.43;6.23;;;16.50;83.80;;;;;;6309918;22;20535;-62
2022/09/13 06:07:18;;;;;;;14.33;8.50;;;16.60;67.00;;;;;;6309261;22;20728;-62
2022/09/13 06:09:46;;;;;;;10.40;6.60;;;16.60;1.00;;;;;;6309837;22;20464;-61
2022/09/13 06:12:13;;;;;;;14.17;7.07;;;16.70;1.00;;;;;;6309291;22;20424;-62
2022/09/13 06:14:41;;;;;;;9.43;5.87;;;16.80;1.00;;;;;;6309872;22;20440;-62
2022/09/13 06:17:10;;;;;;;9.73;6.40;;;16.90;1.00;;;;;;6308993;22;20422;-62
2022/09/13 06:19:38;;;;;;;10.03;6.70;;;16.90;99.90;;;;;;6309864;22;20887;-61
2022/09/13 06:22:10;;;;;;;9.73;6.80;;;17.00;99.90;;;;;;6308583;22;20486;-62
2022/09/13 06:24:39;;;;;;;10.30;5.47;;;17.00;99.90;;;;;;6310134;22;20386;-62
2022/09/13 06:27:10;;;;;;;8.77;6.50;;;17.10;99.90;;;;;;6309465;22;20420;-62
2022/09/13 06:29:40;;;;;;;7.30;5.90;;;17.20;99.90;;;;;;6310550;22;20456;-62
2022/09/13 06:32:09;;;;;;;6.70;6.07;;;17.20;99.90;;;;;;6308352;22;20511;-62
2022/09/13 06:34:36;;;;;;;6.80;6.20;;;17.30;99.90;;;;;;6308984;22;20511;-63
2022/09/13 06:37:08;;;;;;;6.37;5.73;;;17.40;99.90;;;;;;6309458;22;20451;-63
2022/09/13 06:39:35;;;;;;;6.50;5.90;;;17.40;99.90;;;;;;6310141;22;20455;-63
2022/09/13 06:42:02;;;;;;;8.17;6.20;;;17.40;99.90;;;;;;6309985;22;20423;-62
2022/09/13 06:44:29;;;;;;;6.83;5.33;;;17.50;75.60;;;;;;6310050;22;20602;-63
2022/09/13 06:46:57;;;;;;;10.13;5.80;;;17.50;1.00;;;;;;6309243;22;20416;-63
2022/09/13 06:49:28;;;;;;;10.13;5.63;;;17.60;1.00;;;;;;6309955;22;20427;-63
2022/09/13 06:51:55;;;;;;;6.60;5.90;;;17.70;1.00;;;;;;6310283;22;20427;-63
2022/09/13 06:54:22;;;;;;;10.00;6.23;;;17.80;1.00;;;;;;6309650;22;20424;-63
2022/09/13 06:56:51;;;;;;;6.87;6.17;;;17.90;1.00;;;;;;6310458;22;20877;-63
2022/09/13 06:59:19;;;;;;;6.17;5.57;;;18.00;1.00;;;;;;6310798;22;20416;-63
2022/09/13 07:01:46;;;;;;;6.83;5.47;;;18.30;1.00;;;;;;6309586;22;20416;-63
2022/09/13 07:04:15;;;;;;;6.20;5.53;;;18.40;1.00;;;;;;6310630;22;20412;-63
2022/09/13 07:06:46;;;;;;;7.80;6.10;;;18.70;1.00;;;;;;6310056;22;20929;-62
2022/09/13 07:09:16;;;;;;;6.43;5.20;;;18.90;1.00;;;;;;6310921;22;20456;-63
2022/09/13 07:11:44;;;;;;;5.67;5.00;;;19.10;1.00;;;;;;6311020;22;20761;-63
2022/09/13 07:14:14;;;;;;;8.10;5.30;;;19.20;1.00;;;;;;6310581;22;20658;-63
2022/09/13 07:16:45;;;;;;;5.53;5.03;;;19.30;1.00;;;;;;6310468;22;20428;-63
2022/09/13 07:19:16;;;;;;;5.80;4.07;;;19.30;1.00;;;;;;6308971;22;20417;-63
2022/09/13 07:21:45;;;;;;;7.30;4.90;;;19.30;99.90;;;;;;6309855;22;20515;-63
2022/09/13 07:24:13;;;;;;;6.20;5.60;;;19.20;99.90;;;;;;6309964;22;20473;-63
2022/09/13 07:26:40;;;;;;;5.60;5.10;;;19.30;99.90;;;;;;6308937;22;20459;-63
2022/09/13 07:29:12;;;;;;;4.57;4.17;;;19.40;99.90;;;;;;6309496;22;20521;-63
2022/09/13 07:31:42;;;;;;;4.87;4.27;;;19.40;99.90;;;;;;6308820;22;20770;-63
2022/09/13 07:34:13;;;;;;;5.10;4.63;;;19.40;99.90;;;;;;6308893;22;20867;-63
2022/09/13 07:36:41;;;;;;;5.47;5.07;;;19.50;99.90;;;;;;6309150;22;20452;-63
2022/09/13 07:39:12;;;;;;;7.90;5.20;;;19.60;99.90;;;;;;6309616;22;20474;-63
2022/09/13 07:41:39;;;;;;;4.70;4.30;;;19.70;99.90;;;;;;6310741;22;20511;-63
2022/09/13 07:44:16;;;;;;;6.07;5.47;;;19.80;99.90;;;;;;6310055;22;20424;-63
2022/09/13 07:46:45;;;;;;;4.90;4.47;;;19.90;99.90;;;;;;6310676;22;20416;-63
2022/09/13 07:49:16;;;;;;;5.27;4.77;;;20.00;99.90;;;;;;6310451;22;20477;-63
2022/09/13 07:51:50;;;;;;;4.80;4.40;;;20.00;99.90;;;;;;6310490;22;20466;-63
2022/09/13 07:54:20;;;;;;;4.83;4.33;;;20.20;99.90;;;;;;6309778;22;20493;-63
2022/09/13 07:56:52;;;;;;;7.20;4.37;;;20.40;99.90;;;;;;6310572;22;20521;-63
2022/09/13 07:59:19;;;;;;;5.53;4.27;;;20.60;99.90;;;;;;6310767;22;20423;-63
2022/09/13 08:01:48;;;;;;;5.93;4.50;;;20.70;99.90;;;;;;6311204;22;20415;-63
2022/09/13 08:04:24;;;;;;;4.83;4.43;;;20.70;99.90;;;;;;6311328;22;20515;-64
2022/09/13 08:06:54;;;;;;;5.83;4.80;;;20.80;99.90;;;;;;6310253;22;20416;-64
2022/09/13 08:09:23;;;;;;;5.37;4.97;;;20.90;99.90;;;;;;6310995;22;20524;-64
2022/09/13 08:11:54;;;;;;;6.40;4.63;;;21.00;99.90;;;;;;6309708;22;20394;-64
2022/09/13 08:14:24;;;;;;;4.77;4.37;;;20.90;99.90;;;;;;6310287;22;20519;-64
2022/09/13 08:16:58;;;;;;;6.10;4.70;;;21.00;99.90;;;;;;6310116;22;20448;-64
2022/09/13 08:19:25;;;;;;;6.10;4.60;;;21.10;99.90;;;;;;6310275;22;20482;-64
2022/09/13 08:21:59;;;;;;;5.67;5.00;;;21.00;99.90;;;;;;6309671;22;20493;-64
2022/09/13 08:24:29;;;;;;;5.00;4.60;;;21.10;99.90;;;;;;6311015;22;20438;-64
2022/09/13 08:26:59;;;;;;;6.43;5.90;;;21.10;99.90;;;;;;6309952;22;20515;-64
2022/09/13 08:29:27;;;;;;;4.50;4.10;;;21.20;99.90;;;;;;6310119;22;20459;-64
2022/09/13 08:31:54;;;;;;;4.40;4.10;;;21.30;99.90;;;;;;6310425;22;20416;-63
2022/09/13 08:34:21;;;;;;;5.00;4.33;;;21.50;99.90;;;;;;6310701;22;20504;-64
2022/09/13 08:36:48;;;;;;;4.60;3.83;;;21.70;99.90;;;;;;6309888;22;20507;-64
2022/09/13 08:39:18;;;;;;;4.10;3.70;;;22.00;99.90;;;;;;6310267;22;20420;-64
2022/09/13 08:42:20;;;;;;;4.37;3.97;;;22.30;99.90;;;;;;6309901;22;20412;-64
2022/09/13 08:44:55;;;;;;;5.10;4.10;;;23.00;99.90;;;;;;6306279;22;20423;-64
2022/09/13 08:47:33;;;;;;;4.40;3.87;;;23.40;99.90;;;;;;6310031;22;20415;-64
2022/09/13 08:50:07;;;;;;;4.77;4.30;;;23.50;99.90;;;;;;6310656;22;20411;-64
2022/09/13 08:52:41;;;;;;;5.33;3.70;;;23.80;99.90;;;;;;6309813;22;20412;-65
2022/09/13 08:55:22;;;;;;;5.20;3.23;;;24.00;99.90;;;;;;6310265;22;20386;-64
2022/09/13 08:57:55;;;;;;;4.43;3.73;;;24.10;99.90;;;;;;6309984;22;20479;-64
2022/09/13 09:00:34;;;;;;;4.30;3.90;;;24.20;99.90;;;;;;6309688;22;20424;-64
2022/09/13 09:03:23;;;;;;;4.27;3.83;;;24.30;99.90;;;;;;6310019;22;20502;-65
2022/09/13 09:05:53;;;;;;;3.63;3.33;;;24.60;99.90;;;;;;6309631;22;20423;-65
2022/09/13 09:08:31;;;;;;;5.77;3.37;;;24.20;99.90;;;;;;6309868;22;20428;-64
2022/09/13 09:11:02;;;;;;;4.13;3.83;;;24.70;99.90;;;;;;6310565;22;20724;-64
2022/09/13 09:13:35;;;;;;;5.53;3.90;;;24.90;99.90;;;;;;6309455;22;20416;-64
2022/09/13 09:16:10;;;;;;;5.23;4.00;;;25.40;99.90;;;;;;6309714;22;20741;-65
2022/09/13 09:18:42;;;;;;;6.40;3.67;;;25.50;99.90;;;;;;6309064;22;20514;-64
2022/09/13 09:21:19;;;;;;;4.57;3.50;;;25.60;99.90;;;;;;6310504;22;20511;-64
2022/09/13 09:23:54;;;;;;;5.10;3.60;;;25.80;99.90;;;;;;6308768;22;20411;-65
2022/09/13 09:26:29;;;;;;;3.90;3.60;;;26.00;99.90;;;;;;6309830;22;20728;-64
2022/09/13 09:29:01;;;;;;;4.53;3.90;;;26.50;99.90;;;;;;6310103;22;20415;-64
2022/09/13 09:31:45;;;;;;;4.70;4.30;;;26.50;99.90;;;;;;6310454;22;20440;-64
2022/09/13 09:34:19;;;;;;;6.93;3.60;;;26.40;99.90;;;;;;6309415;22;20416;-65
2022/09/13 09:37:01;;;;;;;4.47;4.07;;;26.60;99.90;;;;;;6309379;22;20455;-64
2022/09/13 09:39:37;;;;;;;4.03;3.73;;;26.40;99.90;;;;;;6309983;22;20416;-64
2022/09/13 09:42:11;;;;;;;8.80;4.93;;;26.50;99.90;;;;;;6310430;22;20424;-64
2022/09/13 09:44:42;;;;;;;4.30;3.83;;;26.40;99.90;;;;;;6310709;22;20412;-64
2022/09/13 09:47:16;;;;;;;5.10;4.33;;;26.40;99.90;;;;;;6309617;22;20412;-64
2022/09/13 09:52:39;;;;;;;4.43;4.00;;;26.60;99.90;;;;;;6309649;22;20844;-64
2022/09/13 09:55:25;;;;;;;5.77;3.70;;;26.50;99.90;;;;;;6309704;22;20426;-63
2022/09/13 09:57:58;;;;;;;4.30;3.77;;;26.50;99.90;;;;;;6310169;22;20451;-63
2022/09/13 10:00:34;;;;;;;4.40;3.73;;;26.70;99.90;;;;;;6310900;22;20497;-64
2022/09/13 10:03:08;;;;;;;4.77;3.97;;;27.10;99.90;;;;;;6310482;22;20415;-64
2022/09/13 10:05:36;;;;;;;4.33;3.93;;;27.20;99.90;;;;;;6310217;22;20498;-64
2022/09/13 10:08:22;;;;;;;5.53;4.10;;;27.50;99.90;;;;;;6310386;22;20463;-63
2022/09/13 10:10:54;;;;;;;4.20;3.77;;;27.60;99.90;;;;;;6308866;22;20448;-64
2022/09/13 10:13:24;;;;;;;4.53;4.13;;;27.80;99.90;;;;;;6311672;22;20652;-64
2022/09/13 10:16:00;;;;;;;4.93;4.40;;;27.90;99.90;;;;;;6309484;22;20547;-64
2022/09/13 10:18:34;;;;;;;4.50;4.17;;;27.60;99.90;;;;;;6309770;22;20470;-64
2022/09/13 10:21:04;;;;;;;4.50;4.10;;;27.00;99.90;;;;;;6311149;22;20503;-64
2022/09/13 10:23:33;;;;;;;4.90;4.50;;;27.20;99.90;;;;;;6310315;22;20416;-63
2022/09/13 10:26:10;;;;;;;5.70;4.60;;;27.50;99.90;;;;;;6308996;22;20417;-62
2022/09/13 10:28:46;;;;;;;3.90;3.60;;;27.50;99.90;;;;;;6309334;22;20852;-63
2022/09/13 10:31:18;;;;;;;7.23;4.30;;;27.40;99.90;;;;;;6311425;22;20415;-63
2022/09/13 10:34:00;;;;;;;4.70;4.30;;;27.30;99.90;;;;;;6311528;22;20519;-62
2022/09/13 10:36:32;;;;;;;3.70;3.40;;;27.20;99.90;;;;;;6310765;22;20433;-63
2022/09/13 10:39:02;;;;;;;5.40;4.80;;;27.60;99.90;;;;;;6311294;22;20699;-63
2022/09/13 10:41:32;;;;;;;4.73;4.30;;;28.10;99.90;;;;;;6312196;22;20416;-63
2022/09/13 10:44:05;;;;;;;4.40;4.00;;;28.40;99.90;;;;;;6311529;22;20803;-63
2022/09/13 10:46:37;;;;;;;4.80;4.40;;;28.50;99.90;;;;;;6311311;22;20452;-63
2022/09/13 10:49:41;;;;;;;5.33;4.10;;;27.60;99.90;;;;;;6310567;22;20416;-63
2022/09/13 10:52:30;;;;;;;5.97;4.30;;;28.10;99.90;;;;;;6310915;22;20543;-62
2022/09/13 10:55:28;;;;;;;6.40;4.17;;;28.80;99.90;;;;;;6297429;22;20420;-64
2022/09/13 10:58:24;;;;;;;6.83;3.70;;;28.20;99.90;;;;;;6310798;22;20447;-63
2022/09/13 11:01:38;;;;;;;4.50;3.80;;;28.70;99.90;;;;;;6310800;22;20416;-63
2022/09/13 11:04:40;;;;;;;4.70;3.93;;;29.00;99.90;;;;;;6311324;22;20925;-64
2022/09/13 11:07:38;;;;;;;5.43;4.20;;;29.00;99.90;;;;;;6312375;22;20415;-64
2022/09/13 11:10:12;;;;;;;4.13;3.73;;;29.60;99.90;;;;;;6302710;22;20420;-63
2022/09/13 11:12:46;;;;;;;5.53;3.63;;;30.00;99.90;;;;;;6310000;22;20876;-63
2022/09/13 11:15:23;;;;;;;5.37;4.03;;;30.10;99.90;;;;;;6309584;22;20487;-63
2022/09/13 11:18:42;;;;;;;5.00;4.60;;;29.60;99.90;;;;;;6311207;22;21083;-63
2022/09/13 11:21:23;;;;;;;6.00;4.90;;;29.00;99.90;;;;;;6215428;23;20814;-62
2022/09/13 11:24:13;;;;;;;4.80;4.27;;;28.20;99.90;;;;;;6214301;23;20522;-63
2022/09/13 11:26:54;;;;;;;5.70;4.20;;;27.80;99.90;;;;;;6246790;22;20478;-62
2022/09/13 11:29:47;;;;;;;4.60;4.20;;;28.00;99.90;;;;;;6310601;22;20919;-62
2022/09/13 11:32:27;;;;;;;5.23;3.70;;;28.00;99.90;;;;;;6310673;22;20485;-62
2022/09/13 11:35:10;;;;;;;4.27;3.87;;;28.90;99.90;;;;;;6309723;22;20419;-62
2022/09/13 11:37:52;;;;;;;3.90;3.60;;;29.20;99.90;;;;;;6309354;22;20454;-62
2022/09/13 11:40:33;;;;;;;4.70;4.30;;;29.10;99.90;;;;;;6309581;22;20420;-62
2022/09/13 11:43:14;;;;;;;4.83;4.43;;;28.90;99.90;;;;;;6309122;22;20430;-62
2022/09/13 11:45:56;;;;;;;4.60;4.17;;;28.80;99.90;;;;;;6307669;22;20696;-63
2022/09/13 11:48:41;;;;;;;3.67;3.37;;;29.10;99.90;;;;;;6308052;22;20416;-61
2022/09/13 11:51:24;;;;;;;6.07;4.27;;;29.10;99.90;;;;;;6307496;22;20412;-62
2022/09/13 11:54:12;;;;;;;4.23;3.87;;;29.30;99.90;;;;;;6307144;22;20402;-62
2022/09/13 11:56:50;;;;;;;4.37;3.83;;;28.70;99.90;;;;;;6304759;22;20849;-62
2022/09/13 11:59:29;;;;;;;5.23;4.10;;;28.90;99.90;;;;;;6307900;22;20416;-62
2022/09/13 12:02:02;;;;;;;4.07;3.70;;;29.30;99.90;;;;;;6306828;22;20422;-61
2022/09/13 12:04:37;;;;;;;4.73;4.33;;;29.90;99.90;;;;;;6308349;22;20459;-62
2022/09/13 12:07:12;;;;;;;5.83;4.10;;;29.70;99.90;;;;;;6311010;22;20502;-62
2022/09/13 12:09:48;;;;;;;3.40;3.10;;;29.10;99.90;;;;;;6309553;22;20709;-62
2022/09/13 12:12:24;;;;;;;3.53;3.23;;;29.30;99.90;;;;;;6307816;22;20519;-63
2022/09/13 12:15:00;;;;;;;3.73;3.40;;;29.50;99.90;;;;;;6308448;22;20424;-62
2022/09/13 12:17:35;;;;;;;5.00;3.73;;;29.70;99.90;;;;;;6309539;22;20443;-62
2022/09/13 12:20:07;;;;;;;3.60;3.30;;;30.10;99.90;;;;;;6306584;22;20394;-62
2022/09/13 12:22:41;;;;;;;3.90;3.50;;;30.30;99.90;;;;;;6306605;22;20416;-63
2022/09/13 12:25:23;;;;;;;4.33;4.00;;;30.20;99.90;;;;;;6306546;22;20514;-62
2022/09/13 12:28:04;;;;;;;4.47;4.07;;;29.10;99.90;;;;;;6305728;22;20419;-61
2022/09/13 12:30:42;;;;;;;4.70;4.40;;;29.30;99.90;;;;;;6307712;22;20419;-61
2022/09/13 12:33:12;;;;;;;5.50;4.17;;;29.70;99.90;;;;;;6309126;22;20415;-61
2022/09/13 12:35:51;;;;;;;4.13;3.70;;;29.90;99.90;;;;;;6308864;22;20415;-62
2022/09/13 12:38:51;;;;;;;4.83;4.40;;;30.20;99.90;;;;;;6308134;22;20454;-62
2022/09/13 12:41:35;;;;;;;5.07;4.60;;;30.40;99.90;;;;;;6309301;22;20420;-62
2022/09/13 12:44:27;;;;;;;5.50;4.90;;;29.90;99.90;;;;;;6309293;22;20419;-61
2022/09/13 12:47:36;;;;;;;5.87;5.37;;;30.30;99.90;;;;;;6308172;22;20690;-61
2022/09/13 12:50:37;;;;;;;5.63;5.00;;;30.50;99.90;;;;;;6284725;22;20621;-62
2022/09/13 12:53:13;;;;;;;5.10;4.20;;;30.40;99.90;;;;;;6306846;22;20419;-61
2022/09/13 12:56:09;;;;;;;4.30;4.00;;;30.70;99.90;;;;;;6309119;22;20808;-62
2022/09/13 12:59:00;;;;;;;4.60;3.80;;;30.80;99.90;;;;;;6307044;22;20546;-62
2022/09/13 13:01:29;;;;;;;4.23;3.83;;;30.60;99.90;;;;;;6308850;22;20487;-61
2022/09/13 13:04:02;;;;;;;5.30;4.80;;;30.60;99.90;;;;;;6308676;22;20853;-62
2022/09/13 13:06:36;;;;;;;5.20;4.70;;;30.90;99.90;;;;;;6307898;22;20463;-62
2022/09/13 13:09:12;;;;;;;6.00;5.00;;;30.90;99.90;;;;;;6308036;22;20522;-62
2022/09/13 13:11:50;;;;;;;7.47;4.23;;;31.10;99.90;;;;;;6308167;22;20420;-61
2022/09/13 13:14:45;;;;;;;6.33;4.90;;;31.10;99.90;;;;;;6305212;22;20526;-62
2022/09/13 13:17:37;;;;;;;4.57;4.27;;;30.80;99.90;;;;;;6309819;22;20466;-61
2022/09/13 13:20:42;;;;;;;5.20;4.33;;;30.80;99.90;;;;;;6307331;22;20424;-61
2022/09/13 13:23:22;;;;;;;4.50;4.20;;;30.70;99.90;;;;;;6308595;22;20485;-61
2022/09/13 13:26:00;;;;;;;4.50;4.13;;;31.10;99.90;;;;;;6309450;22;20412;-61
2022/09/13 13:29:11;;;;;;;5.90;4.70;;;30.50;99.90;;;;;;6308206;22;20507;-60
2022/09/13 13:31:44;;;;;;;4.47;4.17;;;30.20;99.90;;;;;;6307708;22;20874;-61